Time;durP1;ratioP1;P1;durP2;ratioP2;P2;SDS_P1;SDS_P2;PMS_P1;PMS_P2;Temp;Humidity;BMP_temperature;BMP_pressure;BME280_temperature;BME280_humidity;BME280_pressure;Samples;Min_cycle;Max_cycle;Signal;HPM_P1;HPM_P2
2024/02/22 00:02:49;;;;;;;9.70;3.73;;;;;;;3.64;100.00;97344.03;6295649;28;20196;-56
2024/02/22 00:05:51;;;;;;;3.73;2.03;;;;;;;3.68;100.00;97328.63;6298979;28;20290;-56
2024/02/22 00:08:54;;;;;;;5.07;2.60;;;;;;;3.82;100.00;97322.31;6310675;28;20198;-56
2024/02/22 00:11:57;;;;;;;3.53;1.70;;;;;;;3.87;100.00;97323.28;6306853;28;20211;-56
2024/02/22 00:14:59;;;;;;;4.80;1.53;;;;;;;3.78;100.00;97321.91;6306651;28;20950;-55
2024/02/22 00:18:04;;;;;;;4.93;2.70;;;;;;;3.75;100.00;97317.06;6309230;28;20198;-56
2024/02/22 00:21:06;;;;;;;3.83;1.73;;;;;;;3.80;100.00;97311.19;6308187;28;20663;-57
2024/02/22 00:24:08;;;;;;;5.10;1.43;;;;;;;3.98;100.00;97307.84;6308166;28;20198;-56
2024/02/22 00:27:11;;;;;;;3.70;1.30;;;;;;;4.22;100.00;97291.31;6302930;28;20672;-56
2024/02/22 00:30:13;;;;;;;1.87;1.40;;;;;;;4.06;100.00;97297.09;6314004;28;20187;-56
2024/02/22 00:33:20;;;;;;;3.47;1.63;;;;;;;4.18;100.00;97278.78;6302992;28;20199;-57
2024/02/22 00:36:22;;;;;;;2.13;1.67;;;;;;;4.15;100.00;97295.84;6312531;28;20620;-55
2024/02/22 00:39:25;;;;;;;5.73;1.67;;;;;;;3.98;100.00;97289.41;6313708;28;20305;-56
2024/02/22 00:42:28;;;;;;;2.57;1.50;;;;;;;4.07;100.00;97252.06;6307979;28;20226;-57
2024/02/22 00:45:33;;;;;;;1.77;0.80;;;;;;;4.45;100.00;97277.63;6308647;28;20284;-54
2024/02/22 00:48:36;;;;;;;4.07;1.10;;;;;;;4.08;100.00;97268.69;6307531;28;20197;-56
2024/02/22 00:51:38;;;;;;;2.57;1.00;;;;;;;4.02;100.00;97270.34;6307486;28;20656;-56
2024/02/22 00:54:44;;;;;;;4.33;1.20;;;;;;;4.17;100.00;97261.34;6306607;28;20554;-56
2024/02/22 00:57:46;;;;;;;2.57;0.80;;;;;;;3.96;100.00;97241.38;6296109;28;20196;-54
2024/02/22 01:00:49;;;;;;;3.43;1.10;;;;;;;4.17;100.00;97242.88;6301020;28;21022;-56
2024/02/22 01:03:51;;;;;;;1.20;0.83;;;;;;;4.07;100.00;97236.25;6311644;28;20206;-55
2024/02/22 01:06:55;;;;;;;6.30;1.27;;;;;;;4.57;100.00;97227.59;6308551;28;20182;-56
2024/02/22 01:09:58;;;;;;;2.10;1.13;;;;;;;4.14;100.00;97229.13;6302478;28;20187;-56
2024/02/22 01:13:00;;;;;;;1.00;0.90;;;;;;;4.01;100.00;97216.00;6305014;28;20213;-55
2024/02/22 01:16:03;;;;;;;3.70;0.90;;;;;;;4.26;100.00;97210.78;6306394;28;20202;-53
2024/02/22 01:19:05;;;;;;;1.60;0.60;;;;;;;4.09;100.00;97207.88;6307090;28;20239;-55
2024/02/22 01:22:10;;;;;;;2.93;0.80;;;;;;;4.11;100.00;97207.63;6300642;28;20608;-56
2024/02/22 01:25:12;;;;;;;0.83;0.70;;;;;;;4.00;100.00;97200.41;6311134;28;20263;-55
2024/02/22 01:28:14;;;;;;;3.87;0.80;;;;;;;3.92;100.00;97196.19;6301636;28;20281;-54
2024/02/22 01:31:16;;;;;;;1.17;0.70;;;;;;;3.86;100.00;97184.66;6314438;28;20199;-56
2024/02/22 01:34:21;;;;;;;1.70;0.80;;;;;;;3.98;100.00;97192.69;6306978;28;20194;-55
2024/02/22 01:37:23;;;;;;;1.63;0.80;;;;;;;3.99;100.00;97183.81;6310707;28;20206;-56
2024/02/22 01:40:25;;;;;;;2.60;0.63;;;;;;;4.09;100.00;97178.88;6307935;28;20232;-54
2024/02/22 01:43:28;;;;;;;1.23;0.60;;;;;;;4.01;100.00;97173.03;6303063;28;20183;-57
2024/02/22 01:46:31;;;;;;;0.90;0.40;;;;;;;3.99;100.00;97161.88;6305205;28;21023;-56
2024/02/22 01:49:34;;;;;;;0.70;0.70;;;;;;;3.88;100.00;97156.28;6310392;28;20569;-56
2024/02/22 01:52:38;;;;;;;0.70;0.60;;;;;;;3.87;100.00;97157.31;6297230;28;20621;-56
2024/02/22 01:55:40;;;;;;;3.40;0.60;;;;;;;3.82;100.00;97143.94;6298164;28;20575;-57
2024/02/22 01:58:43;;;;;;;1.90;0.80;;;;;;;4.25;100.00;97138.00;6307306;28;20209;-57
2024/02/22 02:01:54;;;;;;;2.00;0.50;;;;;;;4.12;100.00;97132.81;6308604;28;20677;-56
2024/02/22 02:04:57;;;;;;;2.17;0.80;;;;;;;4.04;100.00;97125.16;6306158;28;20191;-56
2024/02/22 02:08:00;;;;;;;1.40;0.53;;;;;;;3.87;100.00;97128.31;6304377;28;20316;-55
2024/02/22 02:11:04;;;;;;;0.50;0.50;;;;;;;3.80;100.00;97111.75;6306927;28;20214;-56
2024/02/22 02:14:07;;;;;;;2.83;0.70;;;;;;;3.79;100.00;97110.16;6302932;28;20191;-54
2024/02/22 02:17:10;;;;;;;1.50;0.60;;;;;;;3.81;100.00;97096.75;6305130;28;20583;-56
2024/02/22 02:20:14;;;;;;;1.03;0.70;;;;;;;3.82;100.00;97101.00;6311214;28;20199;-59
2024/02/22 02:23:35;;;;;;;1.33;0.60;;;;;;;3.81;100.00;97097.56;6311505;28;20202;-56
2024/02/22 02:26:37;;;;;;;1.17;0.50;;;;;;;3.81;100.00;97083.59;6315017;28;20198;-55
2024/02/22 02:29:43;;;;;;;2.10;0.60;;;;;;;3.71;100.00;97091.16;6298616;28;20609;-56
2024/02/22 02:32:45;;;;;;;1.13;0.90;;;;;;;3.77;100.00;97093.72;6305639;28;20237;-56
2024/02/22 02:35:48;;;;;;;2.70;1.00;;;;;;;3.76;100.00;97078.16;6311187;28;20201;-55
2024/02/22 02:38:50;;;;;;;1.03;0.70;;;;;;;3.74;100.00;97062.53;6305854;28;20654;-55
2024/02/22 02:41:52;;;;;;;0.53;0.43;;;;;;;3.86;100.00;97089.00;6300171;28;20765;-53
2024/02/22 02:44:54;;;;;;;1.60;0.60;;;;;;;4.00;100.00;97081.81;6305311;28;20841;-55
2024/02/22 02:47:57;;;;;;;0.83;0.60;;;;;;;3.95;100.00;97077.19;6301645;28;20259;-56
2024/02/22 02:50:59;;;;;;;1.30;0.70;;;;;;;3.88;100.00;97081.69;6302578;28;20664;-55
2024/02/22 02:54:01;;;;;;;2.90;0.63;;;;;;;3.76;100.00;97064.97;6306646;28;21204;-55
2024/02/22 02:57:03;;;;;;;1.00;0.60;;;;;;;3.91;100.00;97073.38;6304970;28;20694;-57
2024/02/22 03:00:14;;;;;;;0.77;0.67;;;;;;;3.93;100.00;97073.94;6313843;28;20648;-56
2024/02/22 03:03:16;;;;;;;0.60;0.50;;;;;;;4.25;100.00;97063.38;6307676;28;20658;-56
2024/02/22 03:06:18;;;;;;;1.87;0.70;;;;;;;4.01;100.00;97052.63;6303681;28;20200;-56
2024/02/22 03:09:20;;;;;;;1.60;0.73;;;;;;;3.94;100.00;97059.78;6316701;28;20200;-54
2024/02/22 03:12:23;;;;;;;1.80;1.00;;;;;;;4.29;100.00;97049.53;6303538;28;20210;-54
2024/02/22 03:15:26;;;;;;;1.27;0.80;;;;;;;4.04;100.00;97039.03;6302297;28;20605;-56
2024/02/22 03:18:28;;;;;;;2.07;0.73;;;;;;;4.00;100.00;97034.41;6308975;28;20198;-56
2024/02/22 03:21:32;;;;;;;1.03;0.93;;;;;;;4.40;100.00;97029.56;6309052;28;20199;-55
2024/02/22 03:24:34;;;;;;;0.83;0.80;;;;;;;4.33;100.00;97024.31;6312377;28;20210;-58
2024/02/22 03:27:36;;;;;;;3.33;1.50;;;;;;;4.07;100.00;97014.84;6312272;28;20194;-56
2024/02/22 03:30:39;;;;;;;2.03;1.00;;;;;;;4.46;100.00;97022.59;6304983;28;20250;-52
2024/02/22 03:33:41;;;;;;;2.93;1.77;;;;;;;4.22;100.00;97025.06;6297521;28;20256;-54
2024/02/22 03:36:45;;;;;;;2.03;1.40;;;;;;;4.10;100.00;97017.06;6307066;28;20664;-56
2024/02/22 03:39:50;;;;;;;3.27;1.80;;;;;;;4.06;100.00;97020.34;6305575;28;20681;-53
2024/02/22 03:42:52;;;;;;;3.33;2.23;;;;;;;3.99;100.00;97016.94;6306828;28;20239;-57
2024/02/22 03:45:55;;;;;;;4.57;2.90;;;;;;;3.98;100.00;97008.22;6312376;28;20274;-56
2024/02/22 03:48:57;;;;;;;5.97;2.07;;;;;;;3.94;100.00;97011.50;6315082;28;20578;-54
2024/02/22 03:51:59;;;;;;;3.00;2.10;;;;;;;3.94;100.00;97014.97;6297971;28;20203;-54
2024/02/22 03:55:02;;;;;;;3.10;1.90;;;;;;;3.95;100.00;97010.53;6302999;28;20226;-56
2024/02/22 03:58:06;;;;;;;3.43;1.90;;;;;;;3.94;100.00;97009.72;6305858;28;20201;-56
2024/02/22 04:01:08;;;;;;;2.90;2.43;;;;;;;3.93;100.00;97015.19;6303366;28;20276;-56
2024/02/22 04:04:11;;;;;;;3.73;2.33;;;;;;;3.86;100.00;97007.34;6300688;28;20592;-54
2024/02/22 04:07:13;;;;;;;4.40;1.53;;;;;;;3.81;100.00;97004.53;6310955;28;20219;-51
2024/02/22 04:10:16;;;;;;;4.63;1.53;;;;;;;3.80;100.00;97013.47;6309619;28;20646;-56
2024/02/22 04:13:18;;;;;;;1.93;1.10;;;;;;;3.80;100.00;97009.00;6309590;28;20611;-56
2024/02/22 04:16:20;;;;;;;6.83;1.50;;;;;;;3.81;100.00;97012.44;6310850;28;20732;-57
2024/02/22 04:19:22;;;;;;;3.80;1.73;;;;;;;3.83;100.00;96994.59;6314570;28;20191;-56
2024/02/22 04:22:25;;;;;;;3.27;1.63;;;;;;;3.80;100.00;96992.41;6315023;28;20220;-56
2024/02/22 04:25:27;;;;;;;4.43;1.60;;;;;;;3.84;100.00;96983.03;6307341;28;20195;-57
2024/02/22 04:28:30;;;;;;;2.50;1.60;;;;;;;3.77;100.00;96972.56;6300739;28;20214;-56
2024/02/22 04:31:32;;;;;;;2.43;1.60;;;;;;;3.78;100.00;96960.97;6302122;28;20210;-53
2024/02/22 04:34:34;;;;;;;3.13;1.50;;;;;;;3.97;100.00;96945.22;6305543;28;20182;-56
2024/02/22 04:37:37;;;;;;;4.67;1.60;;;;;;;3.74;100.00;96924.75;6309202;28;20661;-56
2024/02/22 04:40:40;;;;;;;2.43;1.57;;;;;;;3.83;100.00;96942.69;6308651;28;20933;-55
2024/02/22 04:43:42;;;;;;;2.73;1.50;;;;;;;3.66;100.00;96944.28;6311050;28;20198;-56
2024/02/22 04:46:44;;;;;;;2.10;1.80;;;;;;;3.73;100.00;96960.81;6308517;28;20199;-56
2024/02/22 04:49:48;;;;;;;3.93;1.70;;;;;;;3.66;100.00;96949.56;6304311;28;20207;-55
2024/02/22 04:52:50;;;;;;;3.40;1.97;;;;;;;3.43;100.00;96929.06;6316811;28;20600;-56
2024/02/22 04:55:52;;;;;;;4.67;1.70;;;;;;;3.55;100.00;96953.69;6313445;28;20269;-55
2024/02/22 04:58:56;;;;;;;4.03;2.03;;;;;;;3.48;100.00;96949.50;6315848;28;20227;-53
2024/02/22 05:01:58;;;;;;;2.73;2.00;;;;;;;3.44;100.00;96951.75;6312711;28;20186;-54
2024/02/22 05:05:00;;;;;;;2.23;1.47;;;;;;;3.41;100.00;96952.19;6310497;28;20199;-53
2024/02/22 05:08:03;;;;;;;3.40;2.03;;;;;;;3.39;100.00;96953.41;6304280;28;20647;-56
2024/02/22 05:11:09;;;;;;;1.70;1.40;;;;;;;3.33;100.00;96944.53;6307269;28;20198;-52
2024/02/22 05:14:12;;;;;;;3.17;1.70;;;;;;;3.31;100.00;96931.59;6303257;28;20679;-57
2024/02/22 05:17:14;;;;;;;4.40;2.03;;;;;;;3.30;100.00;96931.78;6300570;28;20244;-56
2024/02/22 05:20:16;;;;;;;3.83;1.83;;;;;;;3.18;100.00;96908.00;6302911;28;20194;-57
2024/02/22 05:23:19;;;;;;;4.43;2.80;;;;;;;3.19;100.00;96899.09;6317086;28;20316;-56
2024/02/22 05:26:21;;;;;;;3.57;1.93;;;;;;;3.57;100.00;96914.78;6295860;28;20202;-53
2024/02/22 05:29:24;;;;;;;3.43;2.40;;;;;;;3.26;100.00;96893.78;6296244;28;20290;-54
2024/02/22 05:32:27;;;;;;;5.83;2.47;;;;;;;3.19;100.00;96890.38;6310796;28;20292;-56
2024/02/22 05:35:29;;;;;;;4.20;2.53;;;;;;;3.49;100.00;96869.47;6304771;28;20194;-55
2024/02/22 05:38:31;;;;;;;4.10;2.30;;;;;;;3.29;100.00;96877.53;6305624;28;20190;-57
2024/02/22 05:41:34;;;;;;;3.73;2.00;;;;;;;3.15;100.00;96878.66;6304981;28;20238;-56
2024/02/22 05:44:37;;;;;;;4.80;2.37;;;;;;;2.99;100.00;96869.47;6307418;28;20259;-56
2024/02/22 05:47:39;;;;;;;4.50;2.20;;;;;;;3.04;100.00;96867.81;6311160;28;20358;-56
2024/02/22 05:50:41;;;;;;;4.83;2.07;;;;;;;3.08;100.00;96869.00;6315421;28;20256;-56
2024/02/22 05:53:45;;;;;;;4.47;2.33;;;;;;;2.96;100.00;96844.41;6296365;28;20195;-56
2024/02/22 05:56:47;;;;;;;3.40;2.20;;;;;;;3.00;100.00;96850.03;6313925;28;20195;-56
2024/02/22 05:59:49;;;;;;;4.13;2.10;;;;;;;3.00;100.00;96844.78;6309273;28;20201;-56
2024/02/22 06:02:51;;;;;;;3.70;2.37;;;;;;;2.99;100.00;96836.06;6304769;28;20871;-53
2024/02/22 06:05:54;;;;;;;5.40;2.20;;;;;;;3.00;100.00;96840.31;6303557;28;20197;-53
2024/02/22 06:08:56;;;;;;;5.07;2.93;;;;;;;3.01;100.00;96839.31;6298787;28;20235;-56
2024/02/22 06:11:58;;;;;;;4.93;2.20;;;;;;;2.98;100.00;96834.47;6303733;28;20714;-56
2024/02/22 06:15:03;;;;;;;3.27;2.13;;;;;;;3.01;100.00;96835.88;6303216;28;20209;-54
2024/02/22 06:18:06;;;;;;;4.23;2.10;;;;;;;2.92;100.00;96800.34;6310584;28;20202;-56
2024/02/22 06:21:08;;;;;;;3.30;2.10;;;;;;;3.28;100.00;96839.09;6297031;28;20194;-55
2024/02/22 06:24:10;;;;;;;6.50;2.37;;;;;;;3.17;100.00;96819.56;6298198;28;20206;-56
2024/02/22 06:27:12;;;;;;;7.37;2.00;;;;;;;3.31;100.00;96812.34;6300019;28;20190;-57
2024/02/22 06:30:15;;;;;;;3.10;1.77;;;;;;;3.26;100.00;96806.94;6302416;28;20722;-56
2024/02/22 06:33:17;;;;;;;3.50;1.80;;;;;;;3.22;100.00;96803.91;6309618;28;20921;-55
2024/02/22 06:36:19;;;;;;;3.53;2.10;;;;;;;3.30;100.00;96808.91;6304241;28;20336;-56
2024/02/22 06:39:22;;;;;;;3.30;2.03;;;;;;;3.23;100.00;96802.09;6296128;28;20201;-56
2024/02/22 06:42:24;;;;;;;3.63;2.00;;;;;;;3.39;100.00;96816.50;6305077;28;20832;-57
2024/02/22 06:45:27;;;;;;;4.40;2.20;;;;;;;3.43;100.00;96810.59;6308953;28;20239;-56
2024/02/22 06:48:29;;;;;;;3.87;2.30;;;;;;;3.28;100.00;96789.88;6308582;28;20200;-57
2024/02/22 06:51:31;;;;;;;6.20;3.40;;;;;;;3.45;100.00;96810.38;6311587;28;20206;-56
2024/02/22 06:54:35;;;;;;;7.53;4.00;;;;;;;3.47;100.00;96806.50;6303408;28;20215;-57
2024/02/22 06:57:38;;;;;;;5.77;3.77;;;;;;;3.54;100.00;96790.63;6312211;28;20194;-57
2024/02/22 07:00:40;;;;;;;10.60;4.63;;;;;;;3.72;100.00;96795.13;6298800;28;20325;-56
2024/02/22 07:03:42;;;;;;;8.00;5.03;;;;;;;3.96;100.00;96790.78;6300404;28;20194;-56
2024/02/22 07:06:44;;;;;;;9.80;5.33;;;;;;;3.87;100.00;96785.81;6304579;28;20197;-56
2024/02/22 07:09:47;;;;;;;8.70;5.60;;;;;;;3.75;100.00;96776.25;6307051;28;20766;-57
2024/02/22 07:12:49;;;;;;;7.03;4.57;;;;;;;3.78;100.00;96781.06;6310850;28;20687;-55
2024/02/22 07:15:51;;;;;;;8.53;4.83;;;;;;;3.80;100.00;96766.66;6301976;28;20210;-56
2024/02/22 07:18:54;;;;;;;9.97;5.10;;;;;;;3.83;100.00;96762.75;6312750;28;20270;-54
2024/02/22 07:21:56;;;;;;;9.27;5.37;;;;;;;3.89;100.00;96761.88;6315918;28;20199;-56
2024/02/22 07:24:58;;;;;;;9.67;5.93;;;;;;;3.96;100.00;96749.44;6311737;28;20191;-57
2024/02/22 07:28:00;;;;;;;9.43;5.47;;;;;;;4.12;100.00;96740.88;6317212;28;20589;-57
2024/02/22 07:31:02;;;;;;;7.33;5.53;;;;;;;4.47;100.00;96742.81;6300875;28;20711;-55
2024/02/22 07:34:04;;;;;;;8.60;5.70;;;;;;;4.54;100.00;96742.75;6312276;28;20204;-57
2024/02/22 07:37:07;;;;;;;12.17;5.93;;;;;;;4.76;99.93;96732.44;6308194;28;20226;-53
2024/02/22 07:40:09;;;;;;;9.50;6.70;;;;;;;4.86;99.19;96722.13;6307012;28;20269;-57
2024/02/22 07:43:11;;;;;;;10.53;6.17;;;;;;;5.08;97.05;96722.38;6311255;28;20235;-57
2024/02/22 07:46:16;;;;;;;10.27;6.47;;;;;;;5.21;95.95;96724.75;6305106;28;20212;-57
2024/02/22 07:49:21;;;;;;;8.33;5.50;;;;;;;5.26;96.08;96714.31;6314197;28;20199;-58
2024/02/22 07:52:23;;;;;;;8.90;5.93;;;;;;;5.30;97.95;96704.91;6317969;28;20348;-57
2024/02/22 07:55:26;;;;;;;7.03;5.30;;;;;;;5.38;95.43;96707.19;6309456;28;20202;-57
2024/02/22 07:58:28;;;;;;;10.73;6.30;;;;;;;5.53;94.93;96727.03;6300640;28;20562;-58
2024/02/22 08:01:30;;;;;;;10.33;6.27;;;;;;;5.58;97.63;96724.50;6304979;28;20193;-55
2024/02/22 08:04:32;;;;;;;9.90;7.03;;;;;;;5.65;98.61;96712.75;6309266;28;20702;-57
2024/02/22 08:07:34;;;;;;;10.57;6.90;;;;;;;5.70;97.87;96697.00;6305785;28;20189;-57
2024/02/22 08:10:37;;;;;;;10.60;6.60;;;;;;;5.68;97.30;96698.28;6311364;28;20196;-57
2024/02/22 08:13:39;;;;;;;8.23;6.80;;;;;;;5.73;97.27;96705.50;6313012;28;21042;-56
2024/02/22 08:16:41;;;;;;;9.73;7.30;;;;;;;5.80;95.83;96711.44;6314021;28;20666;-56
2024/02/22 08:19:44;;;;;;;9.77;7.40;;;;;;;5.67;96.62;96686.09;6315199;28;20200;-56
2024/02/22 08:22:47;;;;;;;10.73;7.87;;;;;;;6.00;96.26;96711.06;6307237;28;20180;-54
2024/02/22 08:25:49;;;;;;;8.87;7.27;;;;;;;5.97;96.12;96695.69;6301326;28;20632;-57
2024/02/22 08:28:52;;;;;;;9.73;7.27;;;;;;;6.10;96.20;96690.88;6313997;28;20192;-55
2024/02/22 08:31:54;;;;;;;9.27;7.00;;;;;;;6.15;93.43;96679.59;6295100;28;20194;-56
2024/02/22 08:34:58;;;;;;;9.07;6.43;;;;;;;6.25;92.30;96681.63;6306466;28;20213;-57
2024/02/22 08:38:00;;;;;;;12.27;7.30;;;;;;;6.24;92.05;96670.25;6310689;28;20200;-57
2024/02/22 08:41:04;;;;;;;8.23;5.97;;;;;;;6.30;93.58;96671.91;6306715;28;20238;-57
2024/02/22 08:44:07;;;;;;;9.10;6.77;;;;;;;6.39;93.18;96659.91;6303711;28;20560;-54
2024/02/22 08:47:09;;;;;;;8.60;6.73;;;;;;;6.47;92.03;96656.06;6308373;28;20216;-57
2024/02/22 08:50:14;;;;;;;7.67;5.90;;;;;;;6.48;92.11;96644.44;6311241;28;20194;-56
2024/02/22 08:53:17;;;;;;;10.53;6.70;;;;;;;6.49;91.27;96640.75;6316345;28;20205;-57
2024/02/22 08:56:19;;;;;;;9.37;6.63;;;;;;;6.46;90.29;96636.75;6298081;28;20262;-56
2024/02/22 08:59:22;;;;;;;8.30;6.03;;;;;;;6.60;90.68;96644.34;6301114;28;20202;-56
2024/02/22 09:02:24;;;;;;;11.80;6.83;;;;;;;6.59;89.67;96632.16;6310392;28;20197;-57
2024/02/22 09:05:26;;;;;;;9.43;6.60;;;;;;;6.53;89.37;96615.41;6307274;28;20353;-54
2024/02/22 09:08:31;;;;;;;9.17;6.57;;;;;;;6.56;88.26;96614.16;6307456;28;20190;-56
2024/02/22 09:11:33;;;;;;;8.43;6.60;;;;;;;6.71;89.85;96638.97;6306944;28;20190;-58
2024/02/22 09:14:35;;;;;;;7.90;5.97;;;;;;;6.81;89.29;96632.25;6304696;28;20210;-55
2024/02/22 09:17:39;;;;;;;9.70;6.67;;;;;;;6.93;86.87;96630.28;6308915;28;20202;-57
2024/02/22 09:20:41;;;;;;;8.67;6.60;;;;;;;6.95;87.02;96633.50;6296732;28;20195;-57
2024/02/22 09:23:44;;;;;;;9.47;7.10;;;;;;;7.15;86.29;96620.53;6316067;28;20189;-57
2024/02/22 09:26:48;;;;;;;13.57;7.23;;;;;;;7.11;84.53;96584.97;6305062;28;20201;-58
2024/02/22 09:29:50;;;;;;;9.73;6.10;;;;;;;7.34;83.82;96599.00;6305311;28;20191;-57
2024/02/22 09:32:53;;;;;;;10.57;7.17;;;;;;;7.44;82.57;96602.59;6286071;28;20216;-57
2024/02/22 09:35:55;;;;;;;10.30;6.00;;;;;;;7.50;83.29;96598.16;6305286;28;20663;-58
2024/02/22 09:38:57;;;;;;;8.10;5.63;;;;;;;7.50;82.48;96587.53;6307480;28;20186;-54
2024/02/22 09:42:00;;;;;;;7.47;6.03;;;;;;;7.42;82.84;96562.28;6309719;28;20238;-56
2024/02/22 09:45:02;;;;;;;8.30;5.87;;;;;;;7.65;82.15;96590.34;6309605;28;20190;-57
2024/02/22 09:48:05;;;;;;;8.67;5.80;;;;;;;7.77;81.70;96603.44;6314773;28;20190;-57
2024/02/22 09:51:08;;;;;;;13.10;6.37;;;;;;;7.72;79.08;96567.09;6304104;28;20271;-58
2024/02/22 09:54:10;;;;;;;9.00;6.10;;;;;;;8.08;77.14;96590.47;6314119;28;20333;-57
2024/02/22 09:57:14;;;;;;;7.77;5.43;;;;;;;8.15;76.67;96583.91;6312443;28;20736;-57
2024/02/22 10:00:17;;;;;;;7.10;5.30;;;;;;;8.28;78.09;96580.03;6305034;28;20191;-56
2024/02/22 10:03:31;;;;;;;8.70;5.80;;;;;;;8.28;76.21;96559.63;6304513;28;20197;-58
2024/02/22 10:06:33;;;;;;;7.63;5.83;;;;;;;8.45;75.08;96575.41;6338479;27;20201;-55
2024/02/22 10:09:44;;;;;;;8.53;5.20;;;;;;;8.52;76.04;96583.97;6310352;28;20203;-57
2024/02/22 10:12:47;;;;;;;8.27;5.37;;;;;;;8.40;75.27;96570.06;6303081;28;20736;-56
2024/02/22 10:15:50;;;;;;;7.53;5.20;;;;;;;8.51;75.56;96582.34;6306473;28;20283;-57
2024/02/22 10:18:59;;;;;;;8.83;4.67;;;;;;;8.27;76.72;96543.94;6304743;28;20187;-58
2024/02/22 10:22:01;;;;;;;7.50;5.77;;;;;;;8.58;76.28;96582.16;6313692;28;20273;-55
2024/02/22 10:25:09;;;;;;;8.03;6.53;;;;;;;8.56;77.62;96578.94;6310403;28;20704;-57
2024/02/22 10:28:15;;;;;;;8.63;5.30;;;;;;;8.55;77.73;96569.38;6300762;28;20203;-57
2024/02/22 10:31:19;;;;;;;7.60;6.27;;;;;;;8.59;78.48;96561.69;6304655;28;20731;-57
2024/02/22 10:34:25;;;;;;;7.77;6.20;;;;;;;8.59;76.81;96562.50;6303815;28;20751;-57
2024/02/22 10:37:28;;;;;;;7.87;6.27;;;;;;;8.56;77.24;96568.31;6304414;28;20591;-55
2024/02/22 10:40:33;;;;;;;8.97;6.47;;;;;;;8.36;77.21;96528.34;6306589;28;20194;-57
2024/02/22 10:43:42;;;;;;;9.10;6.60;;;;;;;8.41;78.16;96555.75;6299936;28;20552;-56
2024/02/22 10:46:45;;;;;;;10.70;6.63;;;;;;;8.40;77.83;96559.44;6313899;28;20198;-57
2024/02/22 10:49:48;;;;;;;9.40;6.60;;;;;;;8.39;79.69;96551.75;6292667;28;20279;-55
2024/02/22 10:52:52;;;;;;;8.90;6.00;;;;;;;8.37;81.08;96552.00;6301982;28;20211;-57
2024/02/22 10:55:58;;;;;;;10.93;6.23;;;;;;;8.33;80.08;96544.78;6296258;28;20282;-57
2024/02/22 10:59:07;;;;;;;7.70;5.50;;;;;;;8.31;79.71;96555.63;6306340;28;20194;-57
2024/02/22 11:02:11;;;;;;;8.17;6.47;;;;;;;8.30;80.82;96554.03;6305362;28;20277;-51
2024/02/22 11:05:13;;;;;;;8.80;5.50;;;;;;;8.20;81.99;96549.47;6306950;28;20193;-58
2024/02/22 11:08:21;;;;;;;8.90;6.27;;;;;;;8.00;82.64;96517.50;6305176;28;20281;-57
2024/02/22 11:11:29;;;;;;;8.53;5.73;;;;;;;8.10;85.41;96548.59;6310230;28;20546;-57
2024/02/22 11:14:35;;;;;;;7.67;5.87;;;;;;;7.91;87.96;96542.88;6308269;28;20712;-54
2024/02/22 11:17:49;;;;;;;8.43;6.47;;;;;;;7.95;89.32;96565.97;6292830;28;20206;-57
2024/02/22 11:20:52;;;;;;;10.27;7.17;;;;;;;7.74;90.89;96561.56;6311004;28;20270;-57
2024/02/22 11:24:12;;;;;;;9.47;6.37;;;;;;;7.70;95.33;96555.94;6306612;28;20183;-56
2024/02/22 11:27:18;;;;;;;8.43;6.20;;;;;;;7.64;97.82;96556.16;6308048;28;20214;-57
2024/02/22 11:30:23;;;;;;;8.47;7.20;;;;;;;7.49;100.00;96525.00;6302538;28;20207;-56
2024/02/22 11:33:25;;;;;;;8.43;6.93;;;;;;;7.34;100.00;96520.34;6302960;28;20218;-57
2024/02/22 11:36:30;;;;;;;8.40;6.90;;;;;;;7.43;100.00;96540.03;6305125;28;20289;-55
2024/02/22 11:39:32;;;;;;;8.67;7.47;;;;;;;7.47;100.00;96537.69;6299819;28;20614;-57
2024/02/22 11:42:34;;;;;;;9.80;6.63;;;;;;;7.47;100.00;96530.53;6312703;28;20241;-55
2024/02/22 11:45:36;;;;;;;8.17;7.03;;;;;;;7.45;100.00;96522.03;6300209;28;20218;-57
2024/02/22 11:48:39;;;;;;;10.37;8.53;;;;;;;7.56;100.00;96528.25;6293219;28;20187;-55
2024/02/22 11:51:42;;;;;;;10.97;8.67;;;;;;;6.86;100.00;96444.38;6312745;28;20190;-57
2024/02/22 11:54:50;;;;;;;14.03;8.60;;;;;;;7.33;100.00;96517.94;6302410;28;20211;-57
2024/02/22 11:57:53;;;;;;;12.17;8.63;;;;;;;7.33;100.00;96508.13;6305377;28;20519;-57
2024/02/22 12:00:55;;;;;;;10.60;8.40;;;;;;;7.28;100.00;96507.28;6309243;28;20190;-54
2024/02/22 12:03:58;;;;;;;9.77;8.20;;;;;;;7.25;100.00;96505.94;6306716;28;20190;-57
2024/02/22 12:07:04;;;;;;;11.53;8.70;;;;;;;7.30;100.00;96506.00;6313210;28;20189;-53
2024/02/22 12:10:06;;;;;;;11.60;9.03;;;;;;;7.19;100.00;96489.22;6306656;28;20612;-57
2024/02/22 12:13:09;;;;;;;12.27;9.10;;;;;;;7.33;100.00;96502.03;6302748;28;20194;-57
2024/02/22 12:16:11;;;;;;;12.80;9.50;;;;;;;7.53;100.00;96496.13;6315954;28;20316;-54
2024/02/22 12:19:16;;;;;;;11.83;8.83;;;;;;;7.55;100.00;96478.16;6315239;28;20289;-55
2024/02/22 12:22:19;;;;;;;11.47;8.57;;;;;;;7.81;100.00;96490.56;6316231;28;20206;-54
2024/02/22 12:25:21;;;;;;;12.20;8.83;;;;;;;7.73;100.00;96475.09;6312599;28;20190;-56
2024/02/22 12:28:24;;;;;;;12.00;8.63;;;;;;;7.24;100.00;96444.22;6307790;28;20195;-56
2024/02/22 12:31:29;;;;;;;13.50;9.77;;;;;;;7.12;100.00;96437.47;6307478;28;20301;-56
2024/02/22 12:34:31;;;;;;;11.37;9.50;;;;;;;7.20;100.00;96451.06;6306421;28;20207;-57
2024/02/22 12:37:34;;;;;;;15.53;10.40;;;;;;;7.21;100.00;96447.38;6310189;28;20197;-57
2024/02/22 12:40:36;;;;;;;11.83;8.83;;;;;;;7.47;100.00;96432.50;6310906;28;20237;-57
2024/02/22 12:43:46;;;;;;;14.97;10.10;;;;;;;7.38;100.00;96430.56;6307258;28;20319;-57
2024/02/22 12:46:48;;;;;;;11.87;8.40;;;;;;;7.36;100.00;96409.63;6307813;28;20206;-57
2024/02/22 12:49:51;;;;;;;10.77;9.07;;;;;;;7.43;100.00;96396.94;6317044;28;20194;-57
2024/02/22 12:52:53;;;;;;;11.07;7.63;;;;;;;7.47;100.00;96387.44;6313324;28;20245;-56
2024/02/22 12:55:56;;;;;;;11.63;9.13;;;;;;;7.49;100.00;96385.38;6310688;28;20209;-55
2024/02/22 12:59:04;;;;;;;14.37;11.27;;;;;;;7.62;100.00;96378.00;6300441;28;20198;-56
2024/02/22 13:02:06;;;;;;;17.13;11.30;;;;;;;7.42;100.00;96373.38;6300071;28;20209;-54
2024/02/22 13:05:08;;;;;;;13.87;10.97;;;;;;;7.43;100.00;96375.75;6308311;28;20182;-57
2024/02/22 13:08:11;;;;;;;13.90;10.57;;;;;;;7.37;100.00;96360.88;6305052;28;20280;-56
2024/02/22 13:11:23;;;;;;;14.77;10.77;;;;;;;7.20;100.00;96344.34;6299324;28;20278;-57
2024/02/22 13:14:25;;;;;;;12.57;10.23;;;;;;;7.25;100.00;96344.38;6309811;28;20218;-53
2024/02/22 13:17:28;;;;;;;17.43;10.93;;;;;;;7.23;100.00;96346.47;6300514;28;20198;-57
2024/02/22 13:20:32;;;;;;;19.93;11.63;;;;;;;7.25;100.00;96336.44;6300408;28;20264;-56
2024/02/22 13:23:38;;;;;;;15.63;12.07;;;;;;;7.28;100.00;96335.09;6307347;28;20395;-57
2024/02/22 13:26:41;;;;;;;16.80;12.20;;;;;;;7.17;100.00;96318.34;6306590;28;20194;-56
2024/02/22 13:29:44;;;;;;;13.90;11.67;;;;;;;7.18;100.00;96330.53;6306232;28;20194;-57
2024/02/22 13:32:46;;;;;;;16.07;12.47;;;;;;;7.13;100.00;96335.78;6304819;28;20570;-57
2024/02/22 13:35:53;;;;;;;16.63;12.60;;;;;;;6.92;100.00;96316.28;6309098;28;20576;-57
2024/02/22 13:38:55;;;;;;;20.87;12.23;;;;;;;7.10;100.00;96312.47;6298512;28;20282;-59
2024/02/22 13:41:58;;;;;;;15.07;11.87;;;;;;;7.19;100.00;96295.88;6296938;28;20600;-57
2024/02/22 13:45:04;;;;;;;19.57;13.17;;;;;;;7.32;100.00;96307.88;6298660;28;20661;-56
2024/02/22 13:48:11;;;;;;;16.97;13.00;;;;;;;7.46;100.00;96303.72;6312757;28;20623;-54
2024/02/22 13:51:13;;;;;;;21.87;13.67;;;;;;;7.60;100.00;96290.03;6304228;28;20881;-57
2024/02/22 13:54:17;;;;;;;15.00;11.17;;;;;;;7.75;100.00;96276.84;6302140;28;20207;-55
2024/02/22 13:57:19;;;;;;;14.73;11.70;;;;;;;7.81;100.00;96265.22;6303117;28;20238;-58
2024/02/22 14:00:24;;;;;;;14.77;11.53;;;;;;;8.11;100.00;96282.28;6304297;28;20221;-57
2024/02/22 14:03:27;;;;;;;14.43;8.67;;;;;;;8.21;100.00;96283.13;6307726;28;20186;-57
2024/02/22 14:06:30;;;;;;;9.30;7.30;;;;;;;8.27;100.00;96279.44;6311190;28;20655;-57
2024/02/22 14:09:32;;;;;;;11.10;6.87;;;;;;;8.39;100.00;96281.09;6300675;28;20192;-55
2024/02/22 14:12:34;;;;;;;6.13;5.03;;;;;;;8.45;100.00;96274.72;6297715;28;20184;-57
2024/02/22 14:15:38;;;;;;;5.97;4.77;;;;;;;8.50;100.00;96267.56;6307492;28;20636;-56
2024/02/22 14:18:41;;;;;;;6.00;5.00;;;;;;;8.51;100.00;96263.06;6314088;28;20198;-58
2024/02/22 14:21:44;;;;;;;6.20;5.20;;;;;;;8.53;100.00;96268.91;6306919;28;20345;-58
2024/02/22 14:24:46;;;;;;;4.67;3.90;;;;;;;8.47;100.00;96256.69;6304774;28;20194;-56